Sopelana, Spain
Current Conditions -  °F | °C
As of 10:00 PM on Monday 24 Nov 2014 (Local Time) from LEBB Reporting Station
Broken Clouds Broken Clouds  
Wind Chill: 15°   Ceiling: 3000
Heat Index: 15°   Visibility: 6mi
Dew Point: 14°   Wind: 0mph
Humidity: 94%   Direction: NA
Pressure: 30.12"   Gusts: NA
Location:  43.38°N, 2.98°W
Report Text: LEBB 242100Z 00000KT 9999 FEW012 SCT020 BKN030 15/14 Q1020 NOSIG
Loading
Personal Weather Stations






























Interactive Weather Map New forecast layout! Learn more

10-Day Weather Forecast

Advertisements
Track Severe Weather on mobile